createdAt,value
2023-05-10T00:00:16.620Z,799.00
2023-05-10T00:01:16.527Z,665.00
2023-05-10T00:02:16.705Z,653.00
2023-05-10T00:03:16.681Z,630.00
2023-05-10T00:04:16.777Z,599.00
2023-05-10T00:05:16.807Z,565.00
2023-05-10T00:06:16.761Z,565.00
2023-05-10T00:07:16.792Z,567.00
2023-05-10T00:08:17.255Z,570.00
2023-05-10T00:09:16.761Z,574.00
2023-05-10T00:10:16.978Z,589.00
2023-05-10T00:11:16.778Z,632.00
2023-05-10T00:12:16.793Z,603.00
2023-05-10T00:13:16.837Z,575.00
2023-05-10T00:14:17.771Z,557.00
2023-05-10T00:15:16.781Z,561.00
2023-05-10T00:16:16.780Z,581.00
2023-05-10T00:17:16.772Z,596.00
2023-05-10T00:18:16.770Z,587.00
2023-05-10T00:19:16.757Z,553.00
2023-05-10T00:20:18.157Z,526.00
2023-05-10T00:21:16.829Z,536.00
2023-05-10T00:22:16.895Z,620.00
2023-05-10T00:23:17.758Z,654.00
2023-05-10T00:24:17.003Z,643.00
2023-05-10T00:25:17.023Z,693.00
2023-05-10T00:26:17.156Z,710.00
2023-05-10T00:27:17.147Z,807.00
2023-05-10T00:28:17.220Z,637.00
2023-05-10T00:29:17.233Z,594.00
2023-05-10T00:30:17.457Z,625.00
2023-05-10T00:31:17.324Z,656.00
2023-05-10T00:32:17.431Z,649.00
2023-05-10T00:33:17.429Z,605.00
2023-05-10T00:34:17.390Z,592.00
2023-05-10T00:35:17.417Z,589.00
2023-05-10T00:36:17.454Z,546.00
2023-05-10T00:37:17.496Z,521.00
2023-05-10T00:38:17.507Z,522.00
2023-05-10T00:39:17.536Z,507.00
2023-05-10T00:40:17.942Z,499.00
2023-05-10T00:41:17.635Z,505.00
2023-05-10T00:42:17.689Z,500.00
2023-05-10T00:43:17.731Z,500.00
2023-05-10T00:44:17.733Z,503.00
2023-05-10T00:45:17.790Z,523.00
2023-05-10T00:46:17.862Z,496.00
2023-05-10T00:47:17.824Z,500.00
2023-05-10T00:48:17.905Z,513.00
2023-05-10T00:49:17.928Z,532.00
2023-05-10T00:50:18.133Z,523.00
2023-05-10T00:51:18.007Z,546.00
2023-05-10T00:52:18.111Z,577.00
2023-05-10T00:53:18.085Z,607.00
2023-05-10T00:54:18.116Z,534.00
2023-05-10T00:55:18.263Z,508.00
2023-05-10T00:56:18.182Z,509.00
2023-05-10T00:57:18.189Z,524.00
2023-05-10T00:58:18.187Z,555.00
2023-05-10T00:59:18.219Z,575.00
2023-05-10T01:00:18.337Z,573.00
2023-05-10T01:01:18.224Z,580.00
2023-05-10T01:02:18.202Z,579.00
2023-05-10T01:03:18.384Z,562.00
2023-05-10T01:04:18.161Z,557.00
2023-05-10T01:05:18.232Z,578.00
2023-05-10T01:06:18.147Z,578.00
2023-05-10T01:07:18.176Z,576.00
2023-05-10T01:08:18.141Z,588.00
2023-05-10T01:09:18.120Z,615.00
2023-05-10T01:10:18.370Z,653.00
2023-05-10T01:11:18.151Z,665.00
2023-05-10T01:12:18.269Z,660.00
2023-05-10T01:13:18.244Z,635.00
2023-05-10T01:14:18.196Z,640.00
2023-05-10T01:15:18.188Z,746.00
2023-05-10T01:16:18.273Z,622.00
2023-05-10T01:17:18.249Z,599.00
2023-05-10T01:18:18.316Z,568.00
2023-05-10T01:19:18.370Z,570.00
2023-05-10T01:20:18.597Z,564.00
2023-05-10T01:21:18.408Z,579.00
2023-05-10T01:22:18.451Z,599.00
2023-05-10T01:23:18.510Z,592.00
2023-05-10T01:24:18.578Z,613.00
2023-05-10T01:25:18.636Z,618.00
2023-05-10T01:26:18.673Z,597.00
2023-05-10T01:27:18.647Z,597.00
2023-05-10T01:28:18.672Z,605.00
2023-05-10T01:29:18.658Z,628.00
2023-05-10T01:30:18.652Z,637.00
2023-05-10T01:31:18.696Z,657.00
2023-05-10T01:32:18.660Z,598.00
2023-05-10T01:33:18.683Z,606.00
2023-05-10T01:34:18.865Z,623.00
2023-05-10T01:35:18.673Z,614.00
2023-05-10T01:36:19.285Z,628.00
2023-05-10T01:37:18.691Z,626.00
2023-05-10T01:38:18.647Z,665.00
2023-05-10T01:39:18.637Z,652.00
2023-05-10T01:40:18.680Z,728.00
2023-05-10T01:41:18.641Z,774.00
2023-05-10T01:42:18.641Z,754.00
2023-05-10T01:43:18.677Z,779.00
2023-05-10T01:44:18.714Z,822.00
2023-05-10T01:45:18.750Z,858.00
2023-05-10T01:46:18.847Z,880.00
2023-05-10T01:47:18.850Z,1117.00
2023-05-10T01:48:18.871Z,1172.00
2023-05-10T01:49:18.923Z,1424.00
2023-05-10T01:50:19.261Z,1476.00
2023-05-10T01:51:18.928Z,1580.00
2023-05-10T01:52:18.968Z,1441.00
2023-05-10T01:53:19.028Z,1267.00
2023-05-10T01:54:19.078Z,1103.00
2023-05-10T01:55:19.106Z,1152.00
2023-05-10T01:56:19.170Z,1273.00
2023-05-10T01:57:19.213Z,1160.00
2023-05-10T01:58:19.266Z,1158.00
2023-05-10T01:59:19.340Z,1183.00
2023-05-10T02:00:19.414Z,1258.00
2023-05-10T02:01:19.481Z,1165.00
2023-05-10T02:02:19.552Z,970.00
2023-05-10T02:03:19.627Z,995.00
2023-05-10T02:04:19.582Z,1030.00
2023-05-10T02:05:19.602Z,1239.00
2023-05-10T02:06:19.640Z,1153.00
2023-05-10T02:07:19.652Z,1105.00
2023-05-10T02:08:19.706Z,1269.00
2023-05-10T02:09:19.726Z,1542.00
2023-05-10T02:10:19.765Z,1636.00
2023-05-10T02:11:19.807Z,1706.00
2023-05-10T02:12:19.849Z,1817.00
2023-05-10T02:13:19.959Z,1790.00
2023-05-10T02:14:20.832Z,1852.00
2023-05-10T02:15:19.985Z,2125.00
2023-05-10T02:16:20.094Z,2466.00
2023-05-10T02:17:20.094Z,2525.00
2023-05-10T02:18:20.098Z,2558.00
2023-05-10T02:19:20.115Z,2471.00
2023-05-10T02:20:20.338Z,2404.00
2023-05-10T02:21:20.172Z,2453.00
2023-05-10T02:22:20.164Z,2504.00
2023-05-10T02:23:20.208Z,2628.00
2023-05-10T02:24:20.234Z,2720.00
2023-05-10T02:25:20.288Z,2815.00
2023-05-10T02:26:20.373Z,2927.00
2023-05-10T02:27:20.370Z,2775.00
2023-05-10T02:28:21.211Z,2693.00
2023-05-10T02:29:20.502Z,2472.00
2023-05-10T02:30:20.485Z,2652.00
2023-05-10T02:31:20.599Z,2800.00
2023-05-10T02:32:20.577Z,2806.00
2023-05-10T02:33:20.581Z,2879.00
2023-05-10T02:34:20.604Z,2921.00
2023-05-10T02:35:20.630Z,3084.00
2023-05-10T02:36:20.628Z,3134.00
2023-05-10T02:37:20.674Z,3106.00
2023-05-10T02:38:21.323Z,3079.00
2023-05-10T02:39:20.760Z,2926.00
2023-05-10T02:40:20.780Z,2898.00
2023-05-10T02:41:20.810Z,2876.00
2023-05-10T02:42:20.824Z,2695.00
2023-05-10T02:43:20.833Z,2775.00
2023-05-10T02:44:20.874Z,2786.00
2023-05-10T02:45:20.968Z,2758.00
2023-05-10T02:46:21.016Z,2667.00
2023-05-10T02:47:21.071Z,2599.00
2023-05-10T02:48:21.795Z,2598.00
2023-05-10T02:49:21.227Z,2581.00
2023-05-10T02:50:21.214Z,2614.00
2023-05-10T02:51:21.286Z,2565.00
2023-05-10T02:52:21.361Z,2397.00
2023-05-10T02:53:21.430Z,2292.00
2023-05-10T02:54:21.477Z,2382.00
2023-05-10T02:55:21.495Z,2465.00
2023-05-10T02:56:21.566Z,2646.00
2023-05-10T02:57:21.617Z,2635.00
2023-05-10T02:58:21.626Z,2725.00
2023-05-10T02:59:21.761Z,2846.00
2023-05-10T03:00:21.745Z,2773.00
2023-05-10T03:01:21.820Z,2674.00
2023-05-10T03:02:21.903Z,2574.00
2023-05-10T03:03:21.921Z,2626.00
2023-05-10T03:04:21.990Z,2677.00
2023-05-10T03:05:22.020Z,2731.00
2023-05-10T03:06:22.132Z,2747.00
2023-05-10T03:07:22.229Z,2708.00
2023-05-10T03:08:22.229Z,2712.00
2023-05-10T03:09:22.267Z,2829.00
2023-05-10T03:10:22.354Z,3026.00
2023-05-10T03:11:22.369Z,3215.00
2023-05-10T03:12:22.430Z,3241.00
2023-05-10T03:13:22.605Z,3281.00
2023-05-10T03:14:22.546Z,3302.00
2023-05-10T03:15:22.617Z,3284.00
2023-05-10T03:16:22.753Z,3340.00
2023-05-10T03:17:22.830Z,3402.00
2023-05-10T03:18:22.748Z,3387.00
2023-05-10T03:19:22.828Z,3357.00
2023-05-10T03:20:22.823Z,3322.00
2023-05-10T03:21:22.891Z,3324.00
2023-05-10T03:22:23.096Z,3117.00
2023-05-10T03:23:23.097Z,2990.00
2023-05-10T03:24:23.136Z,2909.00
2023-05-10T03:25:23.180Z,2898.00
2023-05-10T03:26:23.208Z,2868.00
2023-05-10T03:27:23.221Z,2839.00
2023-05-10T03:28:23.218Z,2861.00
2023-05-10T03:29:23.305Z,2908.00
2023-05-10T03:30:26.280Z,2933.00
2023-05-10T03:31:23.385Z,2982.00
2023-05-10T03:32:23.362Z,3164.00
2023-05-10T03:33:23.332Z,3277.00
2023-05-10T03:34:23.330Z,3368.00
2023-05-10T03:35:23.334Z,3316.00
2023-05-10T03:36:23.358Z,3109.00
2023-05-10T03:37:23.371Z,3030.00
2023-05-10T03:38:23.463Z,3037.00
2023-05-10T03:39:23.371Z,3037.00
2023-05-10T03:40:23.385Z,3063.00
2023-05-10T03:41:23.420Z,3089.00
2023-05-10T03:42:23.445Z,3128.00
2023-05-10T03:43:23.420Z,3161.00
2023-05-10T03:44:23.463Z,3209.00
2023-05-10T03:45:23.417Z,3290.00
2023-05-10T03:46:23.488Z,3308.00
2023-05-10T03:47:23.454Z,3306.00
2023-05-10T03:48:23.488Z,3293.00
2023-05-10T03:49:23.497Z,3278.00
2023-05-10T03:50:23.507Z,3222.00
2023-05-10T03:51:23.529Z,3215.00
2023-05-10T03:52:23.536Z,3041.00
2023-05-10T03:53:23.533Z,3069.00
2023-05-10T03:54:23.531Z,3203.00
2023-05-10T03:55:23.538Z,3266.00
2023-05-10T03:56:23.559Z,3305.00
2023-05-10T03:57:23.536Z,3334.00
2023-05-10T03:58:23.550Z,3374.00
2023-05-10T03:59:23.620Z,3427.00
2023-05-10T04:00:23.552Z,3447.00
2023-05-10T04:01:23.541Z,3457.00
2023-05-10T04:02:23.633Z,3476.00
2023-05-10T04:03:23.610Z,3501.00
2023-05-10T04:04:23.548Z,3449.00
2023-05-10T04:05:23.559Z,3397.00
2023-05-10T04:06:23.617Z,3358.00
2023-05-10T04:07:23.562Z,3343.00
2023-05-10T04:08:23.586Z,3315.00
2023-05-10T04:09:23.589Z,3365.00
2023-05-10T04:10:23.595Z,3414.00
2023-05-10T04:11:23.661Z,3405.00
2023-05-10T04:12:23.632Z,3337.00
2023-05-10T04:13:23.689Z,3342.00
2023-05-10T04:14:23.814Z,3403.00
2023-05-10T04:15:23.695Z,3436.00
2023-05-10T04:16:23.760Z,3321.00
2023-05-10T04:17:23.748Z,3261.00
2023-05-10T04:18:23.717Z,3240.00
2023-05-10T04:19:23.742Z,3137.00
2023-05-10T04:20:23.749Z,3129.00
2023-05-10T04:21:23.825Z,3146.00
2023-05-10T04:22:23.785Z,3206.00
2023-05-10T04:23:23.806Z,3208.00
2023-05-10T04:24:23.822Z,3208.00
2023-05-10T04:25:23.825Z,3146.00
2023-05-10T04:26:23.884Z,3176.00
2023-05-10T04:27:23.862Z,3189.00
2023-05-10T04:28:23.935Z,3211.00
2023-05-10T04:29:23.957Z,3187.00
2023-05-10T04:30:23.918Z,3212.00
2023-05-10T04:31:24.033Z,3356.00
2023-05-10T04:32:24.036Z,3582.00
2023-05-10T04:33:23.970Z,3764.00
2023-05-10T04:34:24.003Z,3896.00
2023-05-10T04:35:24.105Z,3916.00
2023-05-10T04:36:24.146Z,3875.00
2023-05-10T04:37:24.191Z,3823.00
2023-05-10T04:38:24.215Z,3742.00
2023-05-10T04:39:24.220Z,3737.00
2023-05-10T04:40:24.227Z,3746.00
2023-05-10T04:41:24.321Z,3766.00
2023-05-10T04:42:24.285Z,3787.00
2023-05-10T04:43:24.273Z,3740.00
2023-05-10T04:44:24.281Z,3616.00
2023-05-10T04:45:24.882Z,3585.00
2023-05-10T04:46:24.470Z,3578.00
2023-05-10T04:47:24.345Z,3593.00
2023-05-10T04:48:24.350Z,3454.00
2023-05-10T04:49:24.402Z,3326.00
2023-05-10T04:50:24.392Z,3304.00
2023-05-10T04:51:24.379Z,3385.00
2023-05-10T04:52:24.422Z,3294.00
2023-05-10T04:53:24.383Z,3363.00
2023-05-10T04:54:24.418Z,3366.00
2023-05-10T04:55:24.407Z,3377.00
2023-05-10T04:56:24.461Z,3401.00
2023-05-10T04:57:26.323Z,3444.00
2023-05-10T04:58:24.421Z,3491.00
2023-05-10T04:59:24.426Z,3523.00
2023-05-10T05:00:24.445Z,3626.00
2023-05-10T05:01:24.513Z,3630.00
2023-05-10T05:02:24.432Z,3652.00
2023-05-10T05:03:24.644Z,3693.00
2023-05-10T05:04:24.465Z,3803.00
2023-05-10T05:05:25.330Z,4000.00
2023-05-10T05:06:24.445Z,3987.00
2023-05-10T05:07:25.342Z,3978.00
2023-05-10T05:08:24.446Z,3985.00
2023-05-10T05:09:24.562Z,3983.00
2023-05-10T05:10:24.476Z,4046.00
2023-05-10T05:11:25.512Z,3973.00
2023-05-10T05:12:24.525Z,3870.00
2023-05-10T05:13:24.727Z,3822.00
2023-05-10T05:14:24.907Z,3745.00
2023-05-10T05:15:24.618Z,3727.00
2023-05-10T05:16:24.712Z,3730.00
2023-05-10T05:17:24.635Z,3708.00
2023-05-10T05:18:24.680Z,3716.00
2023-05-10T05:19:24.739Z,3686.00
2023-05-10T05:20:24.848Z,3724.00
2023-05-10T05:21:24.818Z,3755.00
2023-05-10T05:22:24.850Z,3819.00
2023-05-10T05:23:24.954Z,3878.00
2023-05-10T05:24:24.991Z,3862.00
2023-05-10T05:25:25.024Z,4063.00
2023-05-10T05:26:25.088Z,3904.00
2023-05-10T05:27:25.119Z,3812.00
2023-05-10T05:28:25.313Z,3858.00
2023-05-10T05:29:26.260Z,3729.00
2023-05-10T05:30:25.276Z,3773.00
2023-05-10T05:31:25.329Z,3834.00
2023-05-10T05:32:25.376Z,4225.00
2023-05-10T05:33:25.936Z,4174.00
2023-05-10T05:34:25.461Z,4275.00
2023-05-10T05:35:27.676Z,4509.00
2023-05-10T05:36:26.634Z,4402.00
2023-05-10T05:37:25.623Z,4426.00
2023-05-10T05:38:25.685Z,4519.00
2023-05-10T05:39:25.844Z,4303.00
2023-05-10T05:40:25.808Z,4134.00
2023-05-10T05:41:25.946Z,4004.00
2023-05-10T05:42:25.992Z,3929.00
2023-05-10T05:43:25.953Z,3835.00
2023-05-10T05:44:26.839Z,3907.00
2023-05-10T05:45:26.012Z,3891.00
2023-05-10T05:46:28.907Z,3919.00
2023-05-10T05:47:26.046Z,3904.00
2023-05-10T05:48:26.969Z,3722.00
2023-05-10T05:49:26.022Z,3495.00
2023-05-10T05:50:26.085Z,3284.00
2023-05-10T05:51:26.066Z,3138.00
2023-05-10T05:52:26.034Z,3002.00
2023-05-10T05:53:26.030Z,2894.00
2023-05-10T05:54:26.104Z,2776.00
2023-05-10T05:55:26.070Z,2552.00
2023-05-10T05:56:26.057Z,2396.00
2023-05-10T05:57:26.028Z,2301.00
2023-05-10T05:58:26.360Z,2351.00
2023-05-10T05:59:26.107Z,2354.00
2023-05-10T06:00:25.999Z,2365.00
2023-05-10T06:01:26.005Z,2383.00
2023-05-10T06:02:26.091Z,2355.00
2023-05-10T06:03:26.120Z,2352.00
2023-05-10T06:04:26.727Z,2151.00
2023-05-10T06:05:26.011Z,2081.00
2023-05-10T06:06:26.928Z,1994.00
2023-05-10T06:07:25.975Z,1982.00
2023-05-10T06:08:26.011Z,2035.00
2023-05-10T06:09:26.012Z,2188.00
2023-05-10T06:10:25.987Z,2103.00
2023-05-10T06:11:25.959Z,2042.00
2023-05-10T06:12:25.982Z,2097.00
2023-05-10T06:13:26.021Z,2158.00
2023-05-10T06:14:26.091Z,2210.00
2023-05-10T06:15:27.887Z,2419.00
2023-05-10T06:16:26.069Z,2382.00
2023-05-10T06:17:26.238Z,2554.00
2023-05-10T06:18:26.132Z,2384.00
2023-05-10T06:19:26.174Z,2412.00
2023-05-10T06:20:26.156Z,1993.00
2023-05-10T06:21:26.148Z,1417.00
2023-05-10T06:22:26.857Z,1067.00
2023-05-10T06:23:26.208Z,1043.00
2023-05-10T06:24:26.245Z,884.00
2023-05-10T06:25:26.306Z,818.00
2023-05-10T06:26:26.369Z,666.00
2023-05-10T06:27:26.415Z,663.00
2023-05-10T06:28:26.420Z,640.00
2023-05-10T06:29:27.430Z,724.00
2023-05-10T06:30:26.529Z,782.00
2023-05-10T06:31:26.572Z,694.00
2023-05-10T06:32:26.698Z,548.00
2023-05-10T06:33:27.499Z,989.00
2023-05-10T06:34:26.759Z,564.00
2023-05-10T06:35:26.734Z,400.00
2023-05-10T06:36:26.782Z,400.00
2023-05-10T06:37:26.810Z,482.00
2023-05-10T06:38:26.813Z,645.00
2023-05-10T06:39:26.873Z,644.00
2023-05-10T06:40:27.785Z,988.00
2023-05-10T06:41:29.960Z,655.00
2023-05-10T06:42:26.955Z,651.00
2023-05-10T06:43:26.966Z,1530.00
2023-05-10T06:44:27.020Z,1136.00
2023-05-10T06:45:27.071Z,1054.00
2023-05-10T06:46:28.000Z,1314.00
2023-05-10T06:47:26.996Z,1565.00
2023-05-10T06:48:27.937Z,1488.00
2023-05-10T06:49:27.385Z,1955.00
2023-05-10T06:50:26.939Z,1498.00
2023-05-10T06:51:26.966Z,996.00
2023-05-10T06:52:27.491Z,834.00
2023-05-10T06:53:27.934Z,753.00
2023-05-10T06:54:27.032Z,1028.00
2023-05-10T06:55:29.964Z,712.00
2023-05-10T06:56:26.977Z,717.00
2023-05-10T06:57:31.814Z,730.00
2023-05-10T06:58:27.053Z,745.00
2023-05-10T06:59:27.058Z,780.00
2023-05-10T07:00:27.447Z,953.00
2023-05-10T07:01:27.186Z,628.00
2023-05-10T07:02:27.011Z,462.00
2023-05-10T07:03:27.706Z,770.00
2023-05-10T07:04:27.040Z,946.00
2023-05-10T07:05:27.427Z,873.00
2023-05-10T07:06:33.514Z,2650.00
2023-05-10T07:07:28.540Z,768.00
2023-05-10T07:08:27.640Z,823.00
2023-05-10T07:09:26.838Z,912.00
2023-05-10T07:10:27.988Z,1322.00
2023-05-10T07:11:27.605Z,1678.00
2023-05-10T07:12:26.754Z,1515.00
2023-05-10T07:13:27.467Z,2468.00
2023-05-10T07:14:26.777Z,1026.00
2023-05-10T07:15:27.489Z,440.00
2023-05-10T07:16:26.876Z,555.00
2023-05-10T07:17:26.747Z,1366.00
2023-05-10T07:18:26.919Z,498.00
2023-05-10T07:19:26.830Z,2275.00
2023-05-10T07:20:26.680Z,868.00
2023-05-10T07:21:26.739Z,409.00
2023-05-10T07:22:26.785Z,491.00
2023-05-10T07:23:26.791Z,400.00
2023-05-10T07:24:26.818Z,494.00
2023-05-10T07:25:27.408Z,501.00
2023-05-10T07:26:26.891Z,523.00
2023-05-10T07:27:27.034Z,562.00
2023-05-10T07:28:27.368Z,999.00
2023-05-10T07:29:27.076Z,701.00
2023-05-10T07:30:28.862Z,880.00
2023-05-10T07:31:27.966Z,1928.00
2023-05-10T07:32:28.008Z,1244.00
2023-05-10T07:33:28.370Z,1131.00
2023-05-10T07:34:27.109Z,1167.00
2023-05-10T07:35:27.443Z,1378.00
2023-05-10T07:36:27.049Z,1574.00
2023-05-10T07:37:28.063Z,1566.00
2023-05-10T07:38:27.013Z,1247.00
2023-05-10T07:39:28.191Z,790.00
2023-05-10T07:40:27.029Z,1039.00
2023-05-10T07:41:27.240Z,1429.00
2023-05-10T07:42:26.986Z,1375.00
2023-05-10T07:43:27.020Z,1357.00
2023-05-10T07:44:26.993Z,704.00
2023-05-10T07:45:28.463Z,560.00
2023-05-10T07:46:26.947Z,557.00
2023-05-10T07:47:26.929Z,620.00
2023-05-10T07:48:26.864Z,623.00
2023-05-10T07:49:26.869Z,629.00
2023-05-10T07:50:26.830Z,698.00
2023-05-10T07:51:26.858Z,757.00
2023-05-10T07:52:26.833Z,800.00
2023-05-10T07:53:26.793Z,731.00
2023-05-10T07:54:26.808Z,654.00
2023-05-10T07:55:27.992Z,837.00
2023-05-10T07:56:26.732Z,622.00
2023-05-10T07:57:26.766Z,501.00
2023-05-10T07:58:26.772Z,636.00
2023-05-10T07:59:26.739Z,825.00
2023-05-10T08:00:26.786Z,786.00
2023-05-10T08:01:26.835Z,1093.00
2023-05-10T08:02:28.495Z,792.00
2023-05-10T08:03:26.956Z,985.00
2023-05-10T08:04:26.989Z,1167.00
2023-05-10T08:05:26.975Z,1431.00
2023-05-10T08:06:26.986Z,1682.00
2023-05-10T08:07:27.053Z,1223.00
2023-05-10T08:08:27.056Z,1177.00
2023-05-10T08:09:27.096Z,850.00
2023-05-10T08:10:27.167Z,734.00
2023-05-10T08:11:27.071Z,742.00
2023-05-10T08:12:27.042Z,923.00
2023-05-10T08:13:27.066Z,711.00
2023-05-10T08:14:26.964Z,1133.00
2023-05-10T08:15:28.284Z,1484.00
2023-05-10T08:16:26.931Z,1085.00
2023-05-10T08:17:26.946Z,661.00
2023-05-10T08:18:26.854Z,761.00
2023-05-10T08:19:26.878Z,972.00
2023-05-10T08:20:27.393Z,608.00
2023-05-10T08:21:26.811Z,608.00
2023-05-10T08:22:26.775Z,548.00
2023-05-10T08:23:26.709Z,467.00
2023-05-10T08:24:26.749Z,502.00
2023-05-10T08:25:26.782Z,437.00
2023-05-10T08:26:26.789Z,597.00
2023-05-10T08:27:26.877Z,499.00
2023-05-10T08:28:26.882Z,525.00
2023-05-10T08:29:28.521Z,438.00
2023-05-10T08:30:26.866Z,420.00
2023-05-10T08:31:26.856Z,540.00
2023-05-10T08:32:26.802Z,577.00
2023-05-10T08:33:26.780Z,461.00
2023-05-10T08:34:26.823Z,578.00
2023-05-10T08:35:34.879Z,579.00
2023-05-10T08:36:26.730Z,579.00
2023-05-10T08:37:26.652Z,582.00
2023-05-10T08:38:26.670Z,587.00
2023-05-10T08:39:30.302Z,586.00
2023-05-10T08:40:26.607Z,580.00
2023-05-10T08:41:27.082Z,586.00
2023-05-10T08:42:26.569Z,624.00
2023-05-10T08:43:26.534Z,467.00
2023-05-10T08:44:27.396Z,549.00
2023-05-10T08:45:26.893Z,541.00
2023-05-10T08:46:26.510Z,615.00
2023-05-10T08:47:26.535Z,498.00
2023-05-10T08:48:26.446Z,521.00
2023-05-10T08:49:26.454Z,565.00
2023-05-10T08:50:26.433Z,527.00
2023-05-10T08:51:26.434Z,757.00
2023-05-10T08:52:26.442Z,1545.00
2023-05-10T08:53:26.422Z,1116.00
2023-05-10T08:54:26.493Z,1002.00
2023-05-10T08:55:26.462Z,888.00
2023-05-10T08:56:26.489Z,783.00
2023-05-10T08:57:26.476Z,766.00
2023-05-10T08:58:26.432Z,777.00
2023-05-10T08:59:26.418Z,797.00
2023-05-10T09:00:26.475Z,855.00
2023-05-10T09:01:26.414Z,846.00
2023-05-10T09:02:26.345Z,1010.00
2023-05-10T09:03:26.943Z,1008.00
2023-05-10T09:04:26.483Z,882.00
2023-05-10T09:05:26.361Z,1011.00
2023-05-10T09:06:26.314Z,1024.00
2023-05-10T09:07:26.249Z,1304.00
2023-05-10T09:08:26.248Z,1310.00
2023-05-10T09:09:26.283Z,1353.00
2023-05-10T09:10:26.245Z,1405.00
2023-05-10T09:11:26.248Z,1504.00
2023-05-10T09:12:26.249Z,1741.00
2023-05-10T09:13:26.245Z,1568.00
2023-05-10T09:14:26.227Z,1553.00
2023-05-10T09:15:26.254Z,1576.00
2023-05-10T09:16:26.304Z,1627.00
2023-05-10T09:17:26.298Z,1648.00
2023-05-10T09:18:28.039Z,1607.00
2023-05-10T09:19:26.205Z,1536.00
2023-05-10T09:20:26.225Z,1337.00
2023-05-10T09:21:26.332Z,1612.00
2023-05-10T09:22:26.253Z,1490.00
2023-05-10T09:23:26.266Z,1192.00
2023-05-10T09:24:26.304Z,1406.00
2023-05-10T09:25:26.302Z,1476.00
2023-05-10T09:26:26.341Z,1494.00
2023-05-10T09:27:26.344Z,1610.00
2023-05-10T09:28:26.366Z,1266.00
2023-05-10T09:29:26.454Z,979.00
2023-05-10T09:30:26.521Z,1096.00
2023-05-10T09:31:26.656Z,1068.00
2023-05-10T09:32:26.805Z,1403.00
2023-05-10T09:33:26.669Z,924.00
2023-05-10T09:34:26.693Z,597.00
2023-05-10T09:35:28.836Z,448.00
2023-05-10T09:36:26.969Z,400.00
2023-05-10T09:37:26.829Z,598.00
2023-05-10T09:38:26.813Z,485.00
2023-05-10T09:39:26.958Z,482.00
2023-05-10T09:40:27.418Z,564.00
2023-05-10T09:41:26.878Z,512.00
2023-05-10T09:42:26.936Z,420.00
2023-05-10T09:43:26.916Z,400.00
2023-05-10T09:44:27.909Z,471.00
2023-05-10T09:45:26.989Z,477.00
2023-05-10T09:46:27.109Z,482.00
2023-05-10T09:47:27.019Z,503.00
2023-05-10T09:48:26.995Z,584.00
2023-05-10T09:49:27.951Z,528.00
2023-05-10T09:50:27.061Z,500.00
2023-05-10T09:51:27.387Z,661.00
2023-05-10T09:52:27.070Z,648.00
2023-05-10T09:53:27.154Z,613.00
2023-05-10T09:54:27.324Z,739.00
2023-05-10T09:55:27.157Z,743.00
2023-05-10T09:56:27.894Z,946.00
2023-05-10T09:57:27.957Z,1668.00
2023-05-10T09:58:27.923Z,1390.00
2023-05-10T09:59:27.135Z,1013.00
2023-05-10T10:00:27.124Z,633.00
2023-05-10T10:01:27.257Z,483.00
2023-05-10T10:02:28.920Z,452.00
2023-05-10T10:03:29.756Z,521.00
2023-05-10T10:04:27.267Z,743.00
2023-05-10T10:05:27.458Z,1155.00
2023-05-10T10:06:30.445Z,911.00
2023-05-10T10:07:27.239Z,925.00
2023-05-10T10:08:27.961Z,966.00
2023-05-10T10:09:27.166Z,1110.00
2023-05-10T10:10:27.218Z,1238.00
2023-05-10T10:11:28.071Z,1183.00
2023-05-10T10:12:27.219Z,953.00
2023-05-10T10:13:27.931Z,938.00
2023-05-10T10:14:27.240Z,985.00
2023-05-10T10:15:27.224Z,756.00
2023-05-10T10:16:27.402Z,638.00
2023-05-10T10:17:27.307Z,442.00
2023-05-10T10:18:27.248Z,521.00
2023-05-10T10:19:27.936Z,422.00
2023-05-10T10:20:27.184Z,400.00
2023-05-10T10:21:27.898Z,400.00
2023-05-10T10:22:27.183Z,400.00
2023-05-10T10:23:27.122Z,400.00
2023-05-10T10:24:27.944Z,405.00
2023-05-10T10:25:27.095Z,500.00
2023-05-10T10:26:27.112Z,527.00
2023-05-10T10:27:27.058Z,500.00
2023-05-10T10:28:28.412Z,452.00
2023-05-10T10:29:27.072Z,457.00
2023-05-10T10:30:27.168Z,481.00
2023-05-10T10:31:27.233Z,504.00
2023-05-10T10:32:27.934Z,538.00
2023-05-10T10:33:28.884Z,609.00
2023-05-10T10:34:27.025Z,1094.00
2023-05-10T10:35:27.185Z,1215.00
2023-05-10T10:36:27.354Z,663.00
2023-05-10T10:37:31.012Z,876.00
2023-05-10T10:38:29.179Z,881.00
2023-05-10T10:39:27.252Z,582.00
2023-05-10T10:40:27.053Z,401.00
2023-05-10T10:41:27.190Z,400.00
2023-05-10T10:42:27.059Z,425.00
2023-05-10T10:43:27.536Z,500.00
2023-05-10T10:44:27.196Z,507.00
2023-05-10T10:45:27.061Z,507.00
2023-05-10T10:46:27.461Z,422.00
2023-05-10T10:47:27.149Z,424.00
2023-05-10T10:48:28.322Z,461.00
2023-05-10T10:49:27.125Z,433.00
2023-05-10T10:50:27.163Z,441.00
2023-05-10T10:51:26.916Z,400.00
2023-05-10T10:52:26.867Z,438.00
2023-05-10T10:53:26.908Z,581.00
2023-05-10T10:54:26.841Z,648.00
2023-05-10T10:55:26.969Z,661.00
2023-05-10T10:56:26.830Z,655.00
2023-05-10T10:57:26.777Z,624.00
2023-05-10T10:58:26.750Z,616.00
2023-05-10T10:59:26.744Z,410.00
2023-05-10T11:00:26.714Z,449.00
2023-05-10T11:01:26.722Z,475.00
2023-05-10T11:02:26.665Z,478.00
2023-05-10T11:03:26.699Z,502.00
2023-05-10T11:04:26.656Z,492.00
2023-05-10T11:05:26.584Z,495.00
2023-05-10T11:06:26.565Z,457.00
2023-05-10T11:07:26.564Z,523.00
2023-05-10T11:08:26.514Z,560.00
2023-05-10T11:09:26.454Z,400.00
2023-05-10T11:10:26.428Z,400.00
2023-05-10T11:11:26.419Z,400.00
2023-05-10T11:12:26.358Z,403.00
2023-05-10T11:13:26.363Z,407.00
2023-05-10T11:14:32.985Z,400.00
2023-05-10T11:15:26.296Z,400.00
2023-05-10T11:16:26.861Z,404.00
2023-05-10T11:17:26.273Z,476.00
2023-05-10T11:18:26.212Z,535.00
2023-05-10T11:19:26.207Z,651.00
2023-05-10T11:20:26.289Z,741.00
2023-05-10T11:21:26.231Z,535.00
2023-05-10T11:22:26.275Z,400.00
2023-05-10T11:23:26.138Z,400.00
2023-05-10T11:24:26.981Z,400.00
2023-05-10T11:25:26.138Z,400.00
2023-05-10T11:26:26.157Z,400.00
2023-05-10T11:27:26.280Z,506.00
2023-05-10T11:28:28.946Z,400.00
2023-05-10T11:29:26.053Z,400.00
2023-05-10T11:30:26.014Z,400.00
2023-05-10T11:31:26.047Z,400.00
2023-05-10T11:32:26.082Z,402.00
2023-05-10T11:33:26.056Z,571.00
2023-05-10T11:34:26.023Z,498.00
2023-05-10T11:35:26.937Z,400.00
2023-05-10T11:36:26.491Z,400.00
2023-05-10T11:37:27.205Z,400.00
2023-05-10T11:38:25.958Z,553.00
2023-05-10T11:39:25.926Z,853.00
2023-05-10T11:40:25.898Z,874.00
2023-05-10T11:41:25.902Z,884.00
2023-05-10T11:42:25.890Z,619.00
2023-05-10T11:43:25.859Z,1002.00
2023-05-10T11:44:25.814Z,1370.00
2023-05-10T11:45:25.839Z,662.00
2023-05-10T11:46:25.864Z,805.00
2023-05-10T11:47:25.837Z,845.00
2023-05-10T11:48:25.743Z,563.00
2023-05-10T11:49:25.773Z,465.00
2023-05-10T11:50:25.794Z,450.00
2023-05-10T11:51:25.710Z,463.00
2023-05-10T11:52:26.425Z,433.00
2023-05-10T11:53:27.040Z,523.00
2023-05-10T11:54:25.685Z,634.00
2023-05-10T11:55:25.674Z,648.00
2023-05-10T11:56:25.684Z,897.00
2023-05-10T11:57:25.647Z,1076.00
2023-05-10T11:58:25.695Z,1216.00
2023-05-10T11:59:25.628Z,773.00
2023-05-10T12:00:25.597Z,889.00
2023-05-10T12:01:25.975Z,991.00
2023-05-10T12:02:25.871Z,883.00
2023-05-10T12:03:25.758Z,1012.00
2023-05-10T12:04:25.755Z,1159.00
2023-05-10T12:05:25.613Z,1026.00
2023-05-10T12:06:25.628Z,952.00
2023-05-10T12:07:25.580Z,1187.00
2023-05-10T12:08:25.593Z,1118.00
2023-05-10T12:09:39.687Z,1239.00
2023-05-10T12:10:26.530Z,1230.00
2023-05-10T12:11:25.523Z,1410.00
2023-05-10T12:12:26.447Z,1733.00
2023-05-10T12:13:25.495Z,2110.00
2023-05-10T12:14:25.508Z,2054.00
2023-05-10T12:15:25.561Z,2140.00
2023-05-10T12:16:26.471Z,1918.00